KQBF/QBF METAR and TAF weather

Enter ICAO airport designator
Station Type Date Time Source
KQBF METAR 2019/05/25 08:56 UTC NOAA

KQBF 250856Z AUTO 27008G16KT 190V350 9999 FEW220 30/21 A2993 RMK AO2 SLP091 WND DATA ESTMD T02960205 52019


Station Type Date Time Source
KQBF Decoded METAR 2019/05/25 08:56 UTC NOAA

Station name not available
May 25, 2019 - 04:56 AM EDT / 2019.05.25 0856 UTC
Wind: from the W (270 degrees) at 9 MPH (8 KT) gusting to 18 MPH (16 KT) (direction variable):0
Visibility: greater than 7 mile(s):0
Sky conditions: mostly clear
Temperature: 85.3 F (29.6 C)
Dew Point: 68.9 F (20.5 C)
Relative Humidity: 58%
Pressure (altimeter): 29.93 in. Hg (1013 hPa)
Pressure tendency: 0.06 inches (1.9 hPa) higher than three hours ago
ob: KQBF 250856Z AUTO 27008G16KT 190V350 9999 FEW220 30/21 A2993 RMK AO2 SLP091 WND DATA ESTMD T02960205 52019
cycle: 9

Station Type Date Time Source
KQBF TAF 2009/08/24 17:21 UTC NOAA

TAF
AMD KQBF 241721Z 241313 06010G20KT 9999 FEW025 SCT160 BKN230 QNH2915INS
BECMG 2223 100020G25KT 9000 -SHRA SCT009 BKN025 OVC035 610505 QNH2910INS
TEMPO 0209 10025G35KT BKN010
BECMG 1213 09020G25KT 9000 -SHRA SCT015 BKN035 OVC050 610606 T11/15Z T10/00Z
AMD 241744 LIMITED METWATCH 2417 TIL 2507

Example: see airport list